Peney — HOGK — position and weather

sailwx.info

Track history (hours):
 
Tides and Currents Weather Stations Pressure Air Temp Water Temp Dewpoint Dewpoint Depression Visibility Wind Speed Wind Dir Waves Ship Positions

Peney

Last reported at 2016-Apr-28 00:32 UTC. Time now 2016-May-06 09:15 UTC.
Position N 30°07' E 122°15'.
Warning: this ship's position is 8 days out of date.

Length 225 m; draft 8.6 m.

Type: Cargo ship. MMSI: 374921000.

Date/timePositionNaut miles runAvg speedWind from/ knotsBaromVisibWave heightAir tempDewpointWater temp
2016-Apr-28 00:32N 30°07' E 122°15'5 0.3
2016-Apr-27 07:23N 30°13' E 122°16'15 8.4
2016-Apr-27 05:33N 30°09' E 122°33'4 0.2
2016-Apr-26 01:26N 30°07' E 122°38'1213.5
2016-Apr-26 00:32N 30°09' E 122°24'2 2.1
2016-Apr-25 23:26N 30°09' E 122°21'5 5.4
2016-Apr-25 22:33N 30°09' E 122°27'1212.2
2016-Apr-25 21:33N 30°06' E 122°41'3 0.2
2016-Apr-25 07:23N 30°06' E 122°44'2 1.9
2016-Apr-25 06:26N 30°05' E 122°46'8 9.1
2016-Apr-25 05:33N 30°08' E 122°37'1413.4
2016-Apr-25 04:30N 30°08' E 122°21'6 6.8
2016-Apr-25 03:33N 30°07' E 122°14'  
Track history (hours):
 
Tides and Currents Weather Stations Pressure Air Temp Water Temp Dewpoint Dewpoint Depression Visibility Wind Speed Wind Dir Waves Ship Positions

Peney

Last reported at 2016-Apr-28 00:32 UTC. Time now 2016-May-06 09:15 UTC.
Position N 30°07' E 122°15'.
Warning: this ship's position is 8 days out of date.

Length 225 m; draft 8.6 m.

Type: Cargo ship. MMSI: 374921000.

Date/timePositionNaut miles runAvg speedWind from/ knotsBaromVisibWave heightAir tempDewpointWater temp
2016-Apr-28 00:32N 30°07' E 122°15'5 0.3
2016-Apr-27 07:23N 30°13' E 122°16'15 8.4
2016-Apr-27 05:33N 30°09' E 122°33'4 0.2
2016-Apr-26 01:26N 30°07' E 122°38'1213.5
2016-Apr-26 00:32N 30°09' E 122°24'2 2.1
2016-Apr-25 23:26N 30°09' E 122°21'5 5.4
2016-Apr-25 22:33N 30°09' E 122°27'1212.2
2016-Apr-25 21:33N 30°06' E 122°41'3 0.2
2016-Apr-25 07:23N 30°06' E 122°44'2 1.9
2016-Apr-25 06:26N 30°05' E 122°46'8 9.1
2016-Apr-25 05:33N 30°08' E 122°37'1413.4
2016-Apr-25 04:30N 30°08' E 122°21'6 6.8
2016-Apr-25 03:33N 30°07' E 122°14'  

Dump ship's entire track history